Frances, Kentucky
Current Conditions -  °F | °C
As of 7:35 AM on Saturday 25 Oct 2014 (Local Time) from K5M9 Reporting Station
Overcast Overcast  
Wind Chill: 56°   Ceiling: 4100
Heat Index: 56°   Visibility: 10mi
Dew Point: 54°   Wind: 7mph
Humidity: 90%   Direction: 220°SW
Pressure: 30.04"   Gusts: NA
Location:  37.3359°N, 88.1049°W
Report Text: K5M9 251235Z AUTO 22006KT 10SM OVC041 14/12 A3004 RMK AO2 T01360120
Loading
Personal Weather Stations






























Interactive Weather Map
Tropical Storm Tracking
New forecast layout! Learn more

10-Day Weather Forecast

Advertisements
Track Severe Weather on mobile